Albany, New Hampshire
Current Conditions -  °F | °C
As of 5:54 AM on Thursday 27 Nov 2014 (Local Time) from KIZG Reporting Station
NA  
Wind Chill: -1°   Ceiling: NA
Heat Index: -1°   Visibility: 10mi
Dew Point: -3°   Wind: 3mph
Humidity: 85%   Direction: 320°NW
Pressure: 29.81"   Gusts: NA
Location:  43.9735°N, 71.2576°W
Report Text: KIZG 271054Z AUTO 32003KT 10SM M01/M03 A2981 RMK AO2 SNE0955 SLP101 P0000 T10111033 $
Loading
Personal Weather Stations






























Interactive Weather Map New forecast layout! Learn more

10-Day Weather Forecast

Advertisements
Track Severe Weather on mobile